ジャカルタ の空港の天気 - METARとTAF

スカルノハッタ国際空港 ( WIII / CGK ) - インドネシア バンテン州、Cengkareng ( ジャカルタ近郊)
飛行場実況気象(Metar)
観測時間10/26 02:00 WIB (10/25 19:00 UTC)
風向・風速南西 3m/s
視程5000m
天気現象煙霧
少しの雲 雲底高度 610m
気温25℃
湿度89%
気圧1008hPa
METARWIII 251900Z 23005KT 5000 HZ FEW020 25/23 Q1008 NOSIG
過去の天気等 Google飛行場航空写真 Wunderground天気予報

過去48時間のMETAR

飛行場予報(TAF)
発表時間: 10/26 00:00 WIB (10/25 17:00 UTC)
予報対象時間: 26日1時 WIB ~ 27日7時 WIB
風向・風速西 3m/s
視程5000m
全天の4割程度の雲 雲底高度 610m
26日11時 WIB ~ 26日13時 WIB に徐々に
風向・風速北 5m/s
視程9000m
TAF WIII 251700Z 2518/2624 26005KT 5000 SCT020
BECMG 2604/2606 36010KT 9000